Newfield, New Jersey
Current Conditions -  °F | °C
As of 10:54 AM on Saturday 25 Oct 2014 (Local Time) from KMIV Reporting Station
Clear Clear  
Wind Chill: 61°   Ceiling: Unl
Heat Index: 61°   Visibility: 10mi
Dew Point: 42°   Wind: 8mph
Humidity: 50%   Direction: 290°WNW
Pressure: 29.91"   Gusts: NA
Location:  39.55°N, 75.02°W
Report Text: KMIV 251454Z AUTO 29007KT 10SM CLR 16/06 A2991 RMK AO2 SLP127 T01610056 58006
Loading
Personal Weather Stations






























Interactive Weather Map
Tropical Storm Tracking
New forecast layout! Learn more

10-Day Weather Forecast

Advertisements
Track Severe Weather on mobile